Karnack, Texas
Current Conditions -  °F | °C
As of 9:55 AM on Thursday 30 Oct 2014 (Local Time) from KASL Reporting Station
Clear Clear  
Wind Chill: 61°   Ceiling: Unl
Heat Index: 61°   Visibility: 10mi
Dew Point: 51°   Wind: 0mph
Humidity: 71%   Direction: NA
Pressure: 30.21"   Gusts: NA
Location:  32.67°N, 94.17°W
Report Text: KASL 301455Z AUTO 00000KT 10SM CLR 16/11 A3021 RMK AO1 T01600108
Loading
Personal Weather Stations






























Interactive Weather Map
Tropical Storm Tracking
New forecast layout! Learn more

10-Day Weather Forecast

Advertisements
Track Severe Weather on mobile